Time;durP1;ratioP1;P1;durP2;ratioP2;P2;SDS_P1;SDS_P2;PMS_P1;PMS_P2;Temp;Humidity;BMP_temperature;BMP_pressure;BME280_temperature;BME280_humidity;BME280_pressure;Samples;Min_cycle;Max_cycle;Signal;HPM_P1;HPM_P2
2021/04/28 00:01:10;;;;;;;17.50;10.43;;;;;;;6.62;67.34;97953.56;5023288;28;20072;-63
2021/04/28 00:03:35;;;;;;;30.90;12.87;;;;;;;6.75;66.84;97949.13;5020447;28;20299;-63
2021/04/28 00:06:01;;;;;;;16.33;10.87;;;;;;;6.76;67.03;97945.72;5023673;28;20029;-62
2021/04/28 00:08:26;;;;;;;27.87;13.23;;;;;;;6.82;66.75;97930.34;5019713;28;20037;-63
2021/04/28 00:10:51;;;;;;;30.60;13.83;;;;;;;6.89;66.50;97931.94;5021099;28;20049;-63
2021/04/28 00:13:17;;;;;;;25.77;12.47;;;;;;;6.98;66.36;97931.78;5021913;28;20112;-62
2021/04/28 00:15:46;;;;;;;19.50;11.37;;;;;;;7.00;66.12;97930.03;5024022;28;20052;-63
2021/04/28 00:18:15;;;;;;;30.00;12.73;;;;;;;7.00;66.39;97926.69;5020330;28;20045;-64
2021/04/28 00:20:41;;;;;;;29.23;13.17;;;;;;;6.98;66.17;97921.59;5023944;28;20064;-63
2021/04/28 00:23:09;;;;;;;24.07;12.00;;;;;;;6.98;66.63;97919.06;5034465;28;20034;-63
2021/04/28 00:25:36;;;;;;;25.37;12.50;;;;;;;7.11;66.13;97920.53;5028646;28;20033;-63
2021/04/28 00:28:02;;;;;;;26.57;12.73;;;;;;;7.14;66.23;97909.44;5027235;28;20327;-62
2021/04/28 00:30:28;;;;;;;24.33;12.40;;;;;;;7.16;65.76;97911.09;5034514;28;20311;-61
2021/04/28 00:32:54;;;;;;;26.37;13.07;;;;;;;7.12;66.00;97901.84;5043465;28;20037;-61
2021/04/28 00:35:21;;;;;;;22.43;11.87;;;;;;;7.15;66.01;97908.56;5028609;28;20079;-61
2021/04/28 00:37:47;;;;;;;21.43;11.97;;;;;;;7.11;66.31;97915.44;5026880;28;20458;-61
2021/04/28 00:40:14;;;;;;;20.63;11.67;;;;;;;7.09;66.38;97913.75;5024199;28;20029;-62
2021/04/28 00:42:42;;;;;;;26.40;13.07;;;;;;;7.07;66.22;97911.25;5026672;28;20041;-61
2021/04/28 00:45:08;;;;;;;31.93;13.77;;;;;;;7.11;66.15;97910.34;5028610;28;20109;-61
2021/04/28 00:47:33;;;;;;;32.97;14.50;;;;;;;7.10;66.28;97901.00;5026163;28;20034;-63
2021/04/28 00:49:59;;;;;;;31.57;14.67;;;;;;;7.11;66.42;97905.25;5024821;28;20324;-63
2021/04/28 00:52:24;;;;;;;28.67;13.73;;;;;;;7.14;66.59;97902.63;5025877;28;20025;-62
2021/04/28 00:54:51;;;;;;;26.87;13.67;;;;;;;7.20;66.57;97896.59;5028837;28;20030;-61
2021/04/28 00:57:17;;;;;;;29.07;12.63;;;;;;;7.15;66.49;97889.03;5026766;28;20037;-61
2021/04/28 00:59:42;;;;;;;32.33;14.10;;;;;;;7.14;66.18;97894.13;5024930;28;20037;-61
2021/04/28 01:02:08;;;;;;;24.50;12.53;;;;;;;7.18;66.43;97888.97;5026462;28;20048;-62
2021/04/28 01:04:33;;;;;;;35.23;14.60;;;;;;;7.17;66.07;97891.56;5024781;28;20025;-61
2021/04/28 01:07:01;;;;;;;27.37;13.60;;;;;;;7.23;66.45;97888.88;5025048;28;20048;-62
2021/04/28 01:09:27;;;;;;;25.93;13.03;;;;;;;7.21;66.45;97888.91;5027723;28;20085;-62
2021/04/28 01:11:54;;;;;;;24.40;11.37;;;;;;;7.25;66.28;97885.47;5024139;28;20076;-63
2021/04/28 01:14:19;;;;;;;21.23;12.27;;;;;;;7.23;66.59;97889.72;5028417;28;20021;-64
2021/04/28 01:16:46;;;;;;;18.73;11.67;;;;;;;7.29;66.51;97887.09;5025414;28;20087;-63
2021/04/28 01:19:13;;;;;;;22.47;12.57;;;;;;;7.30;66.82;97885.34;5024484;28;20025;-64
2021/04/28 01:21:40;;;;;;;25.67;12.73;;;;;;;7.29;66.42;97882.00;5026555;28;20025;-64
2021/04/28 01:24:06;;;;;;;26.33;13.23;;;;;;;7.31;66.41;97889.59;5026736;28;20065;-64
2021/04/28 01:26:33;;;;;;;25.57;13.13;;;;;;;7.32;66.63;97883.63;5026587;28;20029;-64
2021/04/28 01:29:00;;;;;;;23.87;11.90;;;;;;;7.31;66.51;97885.34;5025608;28;20128;-64
2021/04/28 01:31:29;;;;;;;19.37;12.57;;;;;;;7.30;66.83;97882.81;5025220;28;20075;-64
2021/04/28 01:33:58;;;;;;;27.83;12.73;;;;;;;7.43;66.62;97880.88;5023894;28;20041;-64
2021/04/28 01:36:30;;;;;;;21.53;12.07;;;;;;;7.51;66.12;97876.50;5024926;28;20033;-64
2021/04/28 01:38:57;;;;;;;21.10;10.63;;;;;;;7.49;66.42;97873.97;5026023;28;20049;-64
2021/04/28 01:41:25;;;;;;;22.10;11.07;;;;;;;7.48;66.52;97874.81;5027350;28;20048;-64
2021/04/28 01:43:51;;;;;;;27.70;13.00;;;;;;;7.47;66.58;97867.22;5024448;28;20041;-64
2021/04/28 01:46:19;;;;;;;20.43;11.07;;;;;;;7.50;66.82;97868.00;5026489;28;20037;-64
2021/04/28 01:48:46;;;;;;;23.13;11.97;;;;;;;7.51;66.79;97872.19;5028988;28;20044;-64
2021/04/28 01:51:13;;;;;;;26.00;12.10;;;;;;;7.43;66.51;97857.91;5023584;28;20391;-64
2021/04/28 01:53:39;;;;;;;27.17;13.43;;;;;;;7.54;66.66;97869.63;5026753;28;20099;-63
2021/04/28 01:56:05;;;;;;;29.07;12.77;;;;;;;7.63;66.57;97866.91;5025526;28;20040;-64
2021/04/28 01:58:31;;;;;;;27.13;12.73;;;;;;;7.55;66.57;97865.38;5028413;28;20033;-63
2021/04/28 02:00:59;;;;;;;26.30;13.50;;;;;;;7.57;67.04;97869.56;5021980;28;20048;-63
2021/04/28 02:03:26;;;;;;;25.27;12.30;;;;;;;7.49;66.92;97862.91;5025575;28;20283;-63
2021/04/28 02:05:53;;;;;;;25.50;11.70;;;;;;;7.55;67.47;97862.81;5022406;28;20033;-63
2021/04/28 02:08:19;;;;;;;18.00;10.57;;;;;;;7.53;67.42;97861.97;5034444;28;20300;-63
2021/04/28 02:10:46;;;;;;;23.07;11.13;;;;;;;7.52;67.53;97858.59;5025033;28;20060;-63
2021/04/28 02:13:16;;;;;;;24.03;11.57;;;;;;;7.62;67.26;97856.72;5026228;28;20033;-62
2021/04/28 02:15:44;;;;;;;22.80;11.10;;;;;;;7.58;66.97;97862.75;5025855;28;20699;-63
2021/04/28 02:18:10;;;;;;;19.73;10.17;;;;;;;7.52;67.38;97866.25;5024676;28;20326;-63
2021/04/28 02:20:38;;;;;;;22.23;11.30;;;;;;;7.51;66.98;97862.00;5026690;28;20029;-63
2021/04/28 02:23:05;;;;;;;25.00;11.63;;;;;;;7.40;67.30;97860.53;5024772;28;20375;-63
2021/04/28 02:25:32;;;;;;;28.87;11.13;;;;;;;7.28;67.09;97864.16;5027825;28;20086;-63
2021/04/28 02:27:58;;;;;;;20.83;11.30;;;;;;;7.11;67.67;97850.88;5024463;28;20374;-63
2021/04/28 02:30:26;;;;;;;21.77;11.43;;;;;;;7.16;67.68;97861.84;5026939;28;20089;-64
2021/04/28 02:32:52;;;;;;;23.83;10.90;;;;;;;7.11;67.76;97864.47;5024988;28;20033;-65
2021/04/28 02:35:24;;;;;;;23.03;11.97;;;;;;;7.11;67.96;97861.06;5024756;28;20057;-65
2021/04/28 02:38:15;;;;;;;17.87;10.27;;;;;;;7.02;68.29;97859.53;5023797;28;20108;-65
2021/04/28 02:40:41;;;;;;;20.90;10.73;;;;;;;7.05;68.60;97858.63;4986293;28;20039;-65
2021/04/28 02:43:10;;;;;;;21.17;10.83;;;;;;;7.05;68.37;97859.47;4986105;28;20049;-65
2021/04/28 02:45:37;;;;;;;23.67;11.30;;;;;;;7.02;68.37;97856.13;4985892;28;20038;-66
2021/04/28 02:48:03;;;;;;;19.27;11.00;;;;;;;6.93;68.78;97852.03;4975661;28;20039;-65
2021/04/28 02:50:29;;;;;;;19.70;10.90;;;;;;;6.91;69.01;97850.38;4986190;28;20825;-65
2021/04/28 02:52:58;;;;;;;22.17;11.20;;;;;;;6.83;69.38;97855.63;4984714;28;20105;-65
2021/04/28 02:55:23;;;;;;;20.47;10.07;;;;;;;6.74;69.67;97846.41;4985128;28;20356;-65
2021/04/28 02:57:48;;;;;;;19.10;10.50;;;;;;;6.69;69.80;97847.34;4986636;28;20081;-65
2021/04/28 03:00:19;;;;;;;21.53;10.53;;;;;;;6.70;70.13;97849.88;4984637;28;20038;-65
2021/04/28 03:02:46;;;;;;;18.43;10.23;;;;;;;6.59;70.16;97856.84;4984120;28;20078;-65
2021/04/28 03:05:13;;;;;;;21.33;11.07;;;;;;;6.49;70.85;97854.47;4983653;28;20125;-65
2021/04/28 03:07:39;;;;;;;19.70;10.87;;;;;;;6.35;71.17;97852.97;4983840;28;20895;-64
2021/04/28 03:10:05;;;;;;;19.50;10.60;;;;;;;6.28;71.52;97861.53;4986745;28;20082;-65
2021/04/28 03:12:32;;;;;;;21.43;10.70;;;;;;;6.18;71.95;97857.47;4985689;28;20068;-65
2021/04/28 03:14:58;;;;;;;26.00;12.73;;;;;;;6.14;72.23;97857.53;4986053;28;20042;-63
2021/04/28 03:17:23;;;;;;;24.23;12.03;;;;;;;6.09;72.63;97867.75;5002276;28;20046;-61
2021/04/28 03:19:53;;;;;;;24.63;12.70;;;;;;;6.14;72.73;97868.56;5027172;28;20033;-63
2021/04/28 03:22:19;;;;;;;23.53;11.57;;;;;;;6.04;73.25;97872.06;5024867;28;20071;-62
2021/04/28 03:24:46;;;;;;;22.80;11.83;;;;;;;6.02;73.88;97873.81;5023795;28;20036;-62
2021/04/28 03:27:15;;;;;;;21.50;10.90;;;;;;;6.00;74.22;97874.66;5024381;28;20423;-64
2021/04/28 03:29:41;;;;;;;23.40;12.40;;;;;;;6.00;74.17;97878.06;5023576;28;20052;-63
2021/04/28 03:32:07;;;;;;;25.50;11.97;;;;;;;5.92;74.57;97870.53;5025335;28;20037;-62
2021/04/28 03:34:32;;;;;;;19.30;10.93;;;;;;;5.90;74.69;97873.94;5023602;28;20030;-63
2021/04/28 03:36:58;;;;;;;21.27;11.77;;;;;;;5.88;74.98;97868.03;5023292;28;20368;-62
2021/04/28 03:39:24;;;;;;;27.87;12.37;;;;;;;5.89;75.24;97877.38;5025275;28;20034;-63
2021/04/28 03:41:50;;;;;;;21.77;11.17;;;;;;;5.92;75.20;97883.25;5020354;28;20041;-63
2021/04/28 03:44:16;;;;;;;26.27;12.07;;;;;;;5.92;75.27;97878.16;5027577;28;20150;-63
2021/04/28 03:46:42;;;;;;;30.90;12.87;;;;;;;5.87;75.75;97879.91;5020661;28;20044;-63
2021/04/28 03:49:07;;;;;;;26.57;12.53;;;;;;;5.83;75.74;97885.03;5023583;28;20332;-64
2021/04/28 03:51:33;;;;;;;24.03;13.17;;;;;;;5.80;75.77;97885.06;5020193;28;20144;-63
2021/04/28 03:53:58;;;;;;;22.60;11.70;;;;;;;5.80;76.21;97887.63;5019136;28;20422;-63
2021/04/28 03:56:25;;;;;;;23.83;11.97;;;;;;;5.82;76.39;97881.63;5021629;28;20092;-63
2021/04/28 03:58:52;;;;;;;29.97;13.13;;;;;;;5.83;75.87;97890.13;5022922;28;20041;-63
2021/04/28 04:01:17;;;;;;;22.90;11.90;;;;;;;5.81;76.42;97895.22;5024214;28;20021;-63
2021/04/28 04:03:43;;;;;;;22.87;11.97;;;;;;;5.86;76.31;97887.53;5024127;28;20030;-63
2021/04/28 04:06:08;;;;;;;28.17;13.27;;;;;;;5.90;76.08;97887.50;5020685;28;20030;-63
2021/04/28 04:08:34;;;;;;;20.73;11.63;;;;;;;6.02;75.65;97883.13;5026107;28;20045;-62
2021/04/28 04:10:59;;;;;;;24.27;12.17;;;;;;;6.06;75.73;97887.31;5022458;28;20096;-61
2021/04/28 04:13:25;;;;;;;29.70;13.97;;;;;;;6.08;75.61;97891.53;5024329;28;20037;-62
2021/04/28 04:15:50;;;;;;;27.43;14.13;;;;;;;6.19;75.18;97897.31;5021000;28;20042;-62
2021/04/28 04:18:16;;;;;;;41.70;16.50;;;;;;;6.26;75.65;97898.06;5023524;28;20030;-62
2021/04/28 04:20:41;;;;;;;33.07;14.70;;;;;;;6.32;75.26;97893.72;5025907;28;20048;-63
2021/04/28 04:23:07;;;;;;;35.07;14.77;;;;;;;6.41;75.42;97897.84;5023984;28;20033;-63
2021/04/28 04:25:32;;;;;;;26.77;13.40;;;;;;;6.53;75.06;97897.69;5023307;28;20034;-63
2021/04/28 04:27:57;;;;;;;34.10;15.03;;;;;;;6.67;74.44;97892.38;5029668;28;20124;-63
2021/04/28 04:30:23;;;;;;;27.17;13.50;;;;;;;6.85;73.92;97892.94;5024280;28;20037;-62
2021/04/28 04:32:48;;;;;;;30.97;14.20;;;;;;;6.98;73.60;97903.75;5022702;28;20120;-63
2021/04/28 04:35:14;;;;;;;23.37;11.83;;;;;;;7.10;72.59;97890.81;5023621;28;20041;-63
2021/04/28 04:37:39;;;;;;;26.17;13.60;;;;;;;7.25;72.36;97907.56;5021082;28;20068;-62
2021/04/28 04:40:06;;;;;;;25.33;11.93;;;;;;;7.43;71.88;97908.91;5022041;28;20065;-62
2021/04/28 04:42:31;;;;;;;27.40;12.50;;;;;;;7.50;71.28;97915.59;5023466;28;20034;-62
2021/04/28 04:44:57;;;;;;;25.47;12.50;;;;;;;7.55;71.43;97913.81;5023249;28;20038;-64
2021/04/28 04:47:22;;;;;;;22.87;11.53;;;;;;;7.65;70.95;97916.16;5024476;28;20029;-64
2021/04/28 04:49:47;;;;;;;20.80;11.47;;;;;;;7.65;71.06;97912.75;5022678;28;20033;-63
2021/04/28 04:52:13;;;;;;;21.47;11.20;;;;;;;7.82;70.85;97919.22;5021694;28;20032;-63
2021/04/28 04:54:39;;;;;;;20.10;10.80;;;;;;;8.00;70.07;97914.63;5024978;28;20101;-63
2021/04/28 04:57:05;;;;;;;18.40;10.23;;;;;;;8.11;69.58;97917.78;5023922;28;20030;-63
2021/04/28 04:59:30;;;;;;;26.37;11.47;;;;;;;8.22;69.00;97919.28;5021806;28;20069;-64
2021/04/28 05:01:56;;;;;;;21.60;10.10;;;;;;;8.34;68.95;97914.78;5019770;28;20121;-62
2021/04/28 05:04:21;;;;;;;19.97;10.83;;;;;;;8.47;68.51;97911.09;5022747;28;20067;-62
2021/04/28 05:06:46;;;;;;;22.63;10.10;;;;;;;8.58;68.03;97916.81;5023626;28;20021;-63
2021/04/28 05:09:12;;;;;;;22.90;10.27;;;;;;;8.61;68.38;97915.00;5026644;28;20489;-63
2021/04/28 05:11:38;;;;;;;20.97;10.07;;;;;;;8.76;67.17;97913.84;5023503;28;20025;-64
2021/04/28 05:14:03;;;;;;;23.70;11.17;;;;;;;8.89;66.91;97911.81;5029261;28;20030;-63
2021/04/28 05:16:30;;;;;;;23.30;9.70;;;;;;;9.10;66.61;97913.88;5025969;28;20315;-63
2021/04/28 05:18:56;;;;;;;20.83;10.23;;;;;;;9.16;66.29;97904.31;5031620;28;20030;-63
2021/04/28 05:21:21;;;;;;;21.93;9.97;;;;;;;9.24;65.75;97908.41;5027211;28;20022;-63
2021/04/28 05:23:47;;;;;;;15.87;9.07;;;;;;;9.40;65.10;97912.25;5027993;28;20260;-64
2021/04/28 05:26:12;;;;;;;16.93;9.03;;;;;;;9.54;65.08;97917.88;5025949;28;20032;-63
2021/04/28 05:28:38;;;;;;;24.87;11.53;;;;;;;9.49;65.15;97910.31;5026387;28;20045;-64
2021/04/28 05:31:03;;;;;;;28.47;11.80;;;;;;;9.62;64.28;97910.81;5025158;28;20025;-64
2021/04/28 05:33:28;;;;;;;23.57;10.33;;;;;;;9.80;63.72;97909.50;5030193;28;20092;-65
2021/04/28 05:35:54;;;;;;;22.10;10.57;;;;;;;9.93;63.61;97916.75;5026315;28;20029;-64
2021/04/28 05:38:21;;;;;;;21.07;10.20;;;;;;;10.01;63.53;97908.88;5029561;28;20107;-63
2021/04/28 05:40:46;;;;;;;27.27;12.33;;;;;;;10.07;63.39;97906.13;5025148;28;20025;-60
2021/04/28 05:43:12;;;;;;;18.87;10.60;;;;;;;10.10;63.61;97912.00;5027337;28;20044;-62
2021/04/28 05:45:43;;;;;;;23.73;12.83;;;;;;;10.09;62.92;97912.91;5026083;28;20033;-62
2021/04/28 05:48:11;;;;;;;22.30;11.40;;;;;;;10.24;62.84;97913.38;5026591;28;20037;-63
2021/04/28 05:50:37;;;;;;;22.50;12.40;;;;;;;10.31;62.97;97907.19;5023641;28;20056;-65
2021/04/28 05:53:02;;;;;;;27.27;13.07;;;;;;;10.39;62.61;97910.38;5027369;28;20041;-63
2021/04/28 05:55:27;;;;;;;25.93;12.47;;;;;;;10.49;62.47;97910.03;5024861;28;20030;-64
2021/04/28 05:57:53;;;;;;;23.43;11.03;;;;;;;10.58;61.51;97911.47;5023837;28;20026;-62
2021/04/28 06:00:19;;;;;;;19.87;10.10;;;;;;;10.68;61.04;97910.31;5026636;28;20030;-62
2021/04/28 06:02:45;;;;;;;18.70;9.63;;;;;;;10.77;60.44;97907.47;5026233;28;20260;-62
2021/04/28 06:05:12;;;;;;;22.23;10.00;;;;;;;10.80;60.83;97907.38;5025542;28;20041;-63
2021/04/28 06:07:38;;;;;;;22.90;10.23;;;;;;;10.82;60.95;97904.78;5024869;28;20037;-62
2021/04/28 06:10:04;;;;;;;17.87;8.03;;;;;;;10.85;58.64;97910.63;5023206;28;20053;-62
2021/04/28 06:12:30;;;;;;;10.97;5.43;;;;;;;10.92;57.67;97906.13;5023588;28;20109;-63
2021/04/28 06:14:56;;;;;;;14.73;6.37;;;;;;;11.04;57.26;97900.59;5027273;28;20117;-63
2021/04/28 06:17:21;;;;;;;11.30;5.33;;;;;;;11.12;57.03;97901.19;5023649;28;20029;-63
2021/04/28 06:19:46;;;;;;;12.43;5.47;;;;;;;11.10;57.25;97904.72;5022707;28;20375;-63
2021/04/28 06:22:12;;;;;;;21.07;7.77;;;;;;;11.26;57.17;97904.16;5024435;28;20040;-63
2021/04/28 06:24:37;;;;;;;9.57;5.00;;;;;;;11.43;56.66;97903.56;5024575;28;20442;-63
2021/04/28 06:27:04;;;;;;;13.97;6.00;;;;;;;11.48;55.34;97901.69;5025103;28;20022;-63
2021/04/28 06:29:29;;;;;;;12.60;5.30;;;;;;;11.51;56.08;97908.44;5026842;28;20116;-63
2021/04/28 06:31:54;;;;;;;11.90;5.47;;;;;;;11.58;56.31;97903.06;5025331;28;20153;-63
2021/04/28 06:34:20;;;;;;;11.27;4.95;;;;;;;11.65;55.53;97895.97;5024666;28;20037;-62
2021/04/28 06:36:45;;;;;;;15.70;5.93;;;;;;;11.81;55.87;97905.69;5025739;28;20040;-63
2021/04/28 06:39:11;;;;;;;11.63;5.88;;;;;;;11.75;55.13;97892.25;5024775;28;20038;-63
2021/04/28 06:41:37;;;;;;;15.90;6.32;;;;;;;11.92;55.88;97896.78;5025617;28;20481;-62
2021/04/28 06:44:04;;;;;;;15.85;6.38;;;;;;;11.93;54.79;97885.59;5023950;28;20036;-63
2021/04/28 06:46:29;;;;;;;10.63;5.43;;;;;;;11.96;54.82;97894.03;5023088;28;20041;-63
2021/04/28 06:48:55;;;;;;;10.93;5.30;;;;;;;12.01;55.34;97899.81;5025260;28;20034;-63
2021/04/28 06:51:20;;;;;;;10.57;5.15;;;;;;;12.21;54.58;97893.97;5026087;28;20315;-64
2021/04/28 06:53:45;;;;;;;10.48;5.10;;;;;;;12.39;54.05;97898.41;5028406;28;20021;-63
2021/04/28 06:56:11;;;;;;;11.95;6.07;;;;;;;12.35;53.83;97899.41;5031889;28;20072;-62
2021/04/28 06:58:36;;;;;;;12.05;5.65;;;;;;;12.35;54.18;97896.84;5026186;28;20098;-63
2021/04/28 07:01:02;;;;;;;13.43;6.05;;;;;;;12.41;54.36;97901.75;5026829;28;20071;-63
2021/04/28 07:03:28;;;;;;;12.55;4.82;;;;;;;12.58;54.34;97898.53;5023790;28;20028;-63
2021/04/28 07:05:54;;;;;;;11.88;5.72;;;;;;;12.47;53.69;97911.81;5024473;28;20112;-63
2021/04/28 07:08:19;;;;;;;11.48;5.57;;;;;;;12.51;53.45;97908.25;5025449;28;20435;-63
2021/04/28 07:10:45;;;;;;;9.57;5.00;;;;;;;12.64;53.36;97904.31;5027393;28;20124;-63
2021/04/28 07:13:10;;;;;;;11.05;5.00;;;;;;;12.66;54.22;97897.34;5026564;28;20033;-64
2021/04/28 07:15:36;;;;;;;10.82;4.95;;;;;;;12.63;54.12;97900.06;5023195;28;20025;-63
2021/04/28 07:18:03;;;;;;;11.85;5.50;;;;;;;12.71;54.50;97900.59;5024543;28;20034;-63
2021/04/28 07:20:28;;;;;;;13.05;5.68;;;;;;;13.00;53.25;97902.00;5026884;28;20053;-63
2021/04/28 07:22:54;;;;;;;9.10;4.80;;;;;;;13.03;54.15;97901.03;5024906;28;20163;-63
2021/04/28 07:25:19;;;;;;;13.02;4.93;;;;;;;13.03;53.65;97901.84;5022342;28;20038;-64
2021/04/28 07:27:46;;;;;;;12.32;4.85;;;;;;;13.32;52.83;97900.72;5044760;28;20279;-63
2021/04/28 07:30:13;;;;;;;9.05;5.38;;;;;;;13.44;54.05;97897.63;5024569;28;20056;-63
2021/04/28 07:32:39;;;;;;;15.93;7.97;;;;;;;13.60;54.06;97905.53;5022707;28;20038;-64
2021/04/28 07:35:05;;;;;;;13.00;7.07;;;;;;;13.64;52.91;97904.50;5022436;28;20129;-64
2021/04/28 07:37:31;;;;;;;12.32;5.55;;;;;;;13.48;52.96;97903.47;5021704;28;20025;-63
2021/04/28 07:39:56;;;;;;;9.02;4.43;;;;;;;13.73;52.42;97902.38;5024098;28;20053;-63
2021/04/28 07:42:22;;;;;;;12.18;6.55;;;;;;;13.94;52.81;97885.13;5022829;28;20034;-65
2021/04/28 07:44:48;;;;;;;13.15;5.35;;;;;;;13.98;54.83;97896.97;5021706;28;20060;-64
2021/04/28 07:47:13;;;;;;;11.02;6.20;;;;;;;14.08;53.20;97897.41;5023096;28;20021;-63
2021/04/28 07:49:39;;;;;;;9.82;6.22;;;;;;;14.04;52.16;97901.88;5024302;28;20029;-63
2021/04/28 07:52:04;;;;;;;12.82;5.93;;;;;;;14.28;51.54;97902.50;5024510;28;20045;-63
2021/04/28 07:54:30;;;;;;;11.35;6.15;;;;;;;14.17;52.30;97902.97;5026001;28;20137;-63
2021/04/28 07:56:56;;;;;;;10.35;5.88;;;;;;;14.28;51.88;97905.06;5023216;28;20056;-64
2021/04/28 07:59:22;;;;;;;10.63;6.40;;;;;;;14.36;50.87;97908.19;5023560;28;20076;-63
2021/04/28 08:01:48;;;;;;;10.75;6.32;;;;;;;14.37;51.36;97906.44;5022668;28;20097;-64
2021/04/28 08:04:15;;;;;;;14.35;6.35;;;;;;;14.46;50.93;97906.03;5023926;28;20417;-65
2021/04/28 08:06:40;;;;;;;16.00;6.75;;;;;;;14.54;50.85;97896.19;5025829;28;20324;-64
2021/04/28 08:09:06;;;;;;;9.20;5.32;;;;;;;14.60;50.75;97903.59;5027415;28;20128;-64
2021/04/28 08:11:31;;;;;;;7.90;4.82;;;;;;;14.79;50.91;97901.00;5027181;28;20169;-62
2021/04/28 08:13:57;;;;;;;9.10;5.53;;;;;;;14.71;50.67;97903.97;5027653;28;20021;-63
2021/04/28 08:16:22;;;;;;;7.68;4.72;;;;;;;14.89;50.21;97897.09;5025382;28;20026;-63
2021/04/28 08:18:49;;;;;;;8.93;5.47;;;;;;;14.83;50.10;97895.63;5023962;28;20029;-63
2021/04/28 08:21:16;;;;;;;10.18;6.03;;;;;;;14.84;49.08;97901.63;5025668;28;20389;-63
2021/04/28 08:23:42;;;;;;;14.98;5.05;;;;;;;14.92;48.96;97899.53;5029110;28;20030;-63
2021/04/28 08:26:13;;;;;;;12.40;7.20;;;;;;;14.97;48.49;97895.81;5043494;28;20042;-63
2021/04/28 08:28:41;;;;;;;16.80;8.45;;;;;;;14.81;48.85;97896.63;5023253;28;20029;-63
2021/04/28 08:31:11;;;;;;;11.18;5.68;;;;;;;14.90;48.88;97896.16;5028326;28;20029;-63
2021/04/28 08:33:41;;;;;;;14.38;6.55;;;;;;;15.10;48.88;97885.72;5027377;28;20029;-63
2021/04/28 08:36:07;;;;;;;11.02;6.22;;;;;;;14.99;48.82;97893.97;5027365;28;20322;-64
2021/04/28 08:38:37;;;;;;;14.38;6.30;;;;;;;14.99;49.00;97901.72;5026499;28;20022;-63
2021/04/28 08:41:04;;;;;;;10.77;6.45;;;;;;;14.95;49.99;97894.19;5029606;28;20441;-64
2021/04/28 08:43:30;;;;;;;12.35;6.13;;;;;;;15.12;48.70;97899.38;5031322;28;20209;-64
2021/04/28 08:45:56;;;;;;;7.93;4.45;;;;;;;15.24;48.70;97892.78;5031255;28;20036;-64
2021/04/28 08:48:22;;;;;;;10.68;4.82;;;;;;;15.39;47.78;97892.03;5035953;28;20026;-63
2021/04/28 08:50:49;;;;;;;7.80;4.38;;;;;;;15.57;48.05;97892.88;5030887;28;20017;-64
2021/04/28 08:53:16;;;;;;;8.82;4.70;;;;;;;15.75;48.66;97889.34;5034192;28;20025;-63
2021/04/28 08:55:42;;;;;;;12.55;5.82;;;;;;;15.71;47.10;97901.59;5029812;28;20053;-63
2021/04/28 08:58:08;;;;;;;8.23;4.43;;;;;;;15.49;47.72;97886.31;5031232;28;20038;-64
2021/04/28 09:00:35;;;;;;;7.72;4.72;;;;;;;15.47;48.60;97885.56;5028987;28;20033;-63
2021/04/28 09:03:01;;;;;;;6.63;4.50;;;;;;;15.54;47.70;97884.38;5031752;28;20029;-63
2021/04/28 09:05:31;;;;;;;7.57;4.78;;;;;;;15.53;48.33;97882.69;5033826;28;20121;-64
2021/04/28 09:07:57;;;;;;;5.90;4.20;;;;;;;15.56;47.06;97886.03;5030713;28;20432;-64
2021/04/28 09:10:32;;;;;;;6.85;4.57;;;;;;;15.63;47.63;97892.56;5033265;28;20041;-63
2021/04/28 09:13:14;;;;;;;8.57;4.60;;;;;;;15.66;47.47;97880.31;5029945;28;20065;-63
2021/04/28 09:15:43;;;;;;;10.80;5.35;;;;;;;15.44;47.50;97875.41;5029440;28;20418;-64
2021/04/28 09:18:11;;;;;;;8.93;4.70;;;;;;;15.72;47.70;97872.25;5030684;28;20026;-64
2021/04/28 09:20:46;;;;;;;6.28;4.22;;;;;;;15.83;47.36;97882.03;5029536;28;20030;-64
2021/04/28 09:23:14;;;;;;;6.13;4.65;;;;;;;15.81;47.81;97878.69;5027691;28;20038;-64
2021/04/28 09:25:41;;;;;;;9.15;4.10;;;;;;;15.83;46.15;97879.44;5029420;28;20276;-65
2021/04/28 09:28:29;;;;;;;6.07;3.63;;;;;;;15.94;47.00;97866.81;5032191;28;20319;-64
2021/04/28 09:31:11;;;;;;;11.73;4.97;;;;;;;15.99;47.18;97877.75;5027719;28;20028;-63
2021/04/28 09:33:50;;;;;;;8.35;4.55;;;;;;;16.02;47.02;97876.75;5030735;28;20021;-64
2021/04/28 09:36:23;;;;;;;6.82;4.00;;;;;;;15.91;47.73;97870.38;5028220;28;20022;-64
2021/04/28 09:38:57;;;;;;;8.80;4.13;;;;;;;16.03;48.13;97871.50;5027902;28;20075;-65
2021/04/28 09:41:32;;;;;;;5.88;4.40;;;;;;;16.01;48.44;97868.16;5029890;28;20406;-64
2021/04/28 09:43:58;;;;;;;9.88;4.07;;;;;;;16.18;49.03;97870.66;5029907;28;20446;-64
2021/04/28 09:46:24;;;;;;;7.70;4.35;;;;;;;16.34;46.06;97863.75;5029296;28;20022;-64
2021/04/28 09:49:09;;;;;;;10.73;4.32;;;;;;;16.41;46.81;97865.09;5032163;28;20060;-65
2021/04/28 09:51:37;;;;;;;6.10;3.60;;;;;;;16.17;46.84;97862.97;5033844;28;20024;-65
2021/04/28 09:54:15;;;;;;;7.22;4.10;;;;;;;16.31;47.45;97863.09;5027131;28;20112;-65
2021/04/28 09:56:43;;;;;;;6.47;4.88;;;;;;;16.12;46.61;97860.66;5029083;28;20517;-64
2021/04/28 09:59:09;;;;;;;6.28;4.10;;;;;;;15.99;46.46;97846.72;5027154;28;20021;-64
2021/04/28 10:01:36;;;;;;;10.50;4.55;;;;;;;16.02;46.87;97856.88;5026992;28;20397;-63
2021/04/28 10:04:05;;;;;;;7.07;4.53;;;;;;;15.89;48.31;97872.22;5028103;28;20033;-64
2021/04/28 10:06:50;;;;;;;8.93;4.45;;;;;;;16.18;46.41;97859.47;5026355;28;20025;-64
2021/04/28 10:09:33;;;;;;;10.23;4.75;;;;;;;16.17;47.49;97861.22;5030682;28;20051;-64
2021/04/28 10:12:00;;;;;;;7.07;4.30;;;;;;;16.08;47.32;97854.00;5030635;28;20037;-64
2021/04/28 10:14:27;;;;;;;6.03;3.70;;;;;;;16.15;46.66;97854.47;5026932;28;20053;-64
2021/04/28 10:16:59;;;;;;;6.15;3.63;;;;;;;16.40;46.54;97855.66;5026809;28;20050;-66
2021/04/28 10:19:25;;;;;;;7.70;4.63;;;;;;;16.34;47.02;97860.31;5028686;28;20026;-67
2021/04/28 10:21:53;;;;;;;7.63;4.18;;;;;;;16.41;47.02;97846.16;5031064;28;20587;-64
2021/04/28 10:24:19;;;;;;;11.65;4.55;;;;;;;16.13;46.41;97859.72;5025654;28;20287;-64
2021/04/28 10:26:47;;;;;;;6.10;4.25;;;;;;;16.19;46.85;97854.25;5028452;28;20045;-63
2021/04/28 10:29:18;;;;;;;10.05;5.60;;;;;;;16.19;47.14;97851.66;5026970;28;20275;-65
2021/04/28 10:31:47;;;;;;;8.68;4.88;;;;;;;16.19;47.78;97861.16;5028209;28;20287;-63
2021/04/28 10:34:15;;;;;;;8.98;5.07;;;;;;;16.09;48.22;97844.44;5028735;28;20103;-64
2021/04/28 10:36:43;;;;;;;10.07;4.80;;;;;;;16.32;46.69;97844.91;5031625;28;20124;-64
2021/04/28 10:39:09;;;;;;;12.15;5.30;;;;;;;16.19;46.32;97835.31;5032202;28;20037;-63
2021/04/28 10:41:44;;;;;;;10.50;4.32;;;;;;;16.36;47.32;97842.97;5030963;28;20565;-65
2021/04/28 10:44:31;;;;;;;5.05;3.63;;;;;;;16.43;47.91;97841.72;5028876;28;20370;-64
2021/04/28 10:47:18;;;;;;;9.00;4.88;;;;;;;16.57;46.36;97835.78;5027074;28;20084;-64
2021/04/28 10:50:00;;;;;;;5.78;4.05;;;;;;;16.56;46.53;97850.47;5028084;28;20103;-63
2021/04/28 10:52:33;;;;;;;10.13;4.25;;;;;;;16.68;46.33;97841.22;5026603;28;20056;-65
2021/04/28 10:54:59;;;;;;;10.57;5.03;;;;;;;16.62;46.95;97842.41;5027729;28;20264;-64
2021/04/28 10:57:40;;;;;;;8.95;4.95;;;;;;;16.69;46.60;97841.13;5030745;28;20041;-64
2021/04/28 11:00:21;;;;;;;9.02;4.15;;;;;;;16.96;45.92;97823.22;5030146;28;20023;-64
2021/04/28 11:02:47;;;;;;;7.18;4.07;;;;;;;16.98;45.64;97825.69;5025254;28;20375;-64
2021/04/28 11:05:24;;;;;;;7.90;3.90;;;;;;;17.09;45.71;97823.34;5025174;28;20025;-63
2021/04/28 11:07:58;;;;;;;7.95;4.07;;;;;;;16.93;46.43;97817.38;5024066;28;20124;-63
2021/04/28 11:10:34;;;;;;;9.07;4.70;;;;;;;17.05;45.64;97821.84;5021917;28;20065;-63
2021/04/28 11:13:16;;;;;;;10.48;3.63;;;;;;;16.59;46.73;97813.28;5025849;28;20061;-63
2021/04/28 11:15:58;;;;;;;8.40;3.72;;;;;;;16.79;48.24;97810.38;5025786;28;20039;-62
2021/04/28 11:18:33;;;;;;;6.72;4.07;;;;;;;17.13;45.96;97806.69;5027115;28;20327;-62
2021/04/28 11:21:17;;;;;;;10.20;4.47;;;;;;;17.27;46.23;97815.31;5026907;28;20034;-63
2021/04/28 11:24:04;;;;;;;7.25;4.13;;;;;;;17.30;44.80;97797.00;5024779;28;20037;-62
2021/04/28 11:26:30;;;;;;;10.43;5.13;;;;;;;17.21;47.05;97812.25;5025554;28;20341;-63
2021/04/28 11:28:57;;;;;;;5.07;3.67;;;;;;;17.48;44.84;97804.63;5023627;28;20076;-62